Time;durP1;ratioP1;P1;durP2;ratioP2;P2;SDS_P1;SDS_P2;PMS_P1;PMS_P2;Temp;Humidity;BMP_temperature;BMP_pressure;BME280_temperature;BME280_humidity;BME280_pressure;Samples;Min_cycle;Max_cycle;Signal;HPM_P1;HPM_P2
2021/01/27 00:00:09;;;;;;;7.93;4.55;;;;;;;;;;4979718;28;20085;-84
2021/01/27 00:02:35;;;;;;;12.25;4.43;;;;;;;;;;4978443;28;20047;-84
2021/01/27 00:05:02;;;;;;;10.10;4.13;;;;;;;;;;4978308;28;20056;-84
2021/01/27 00:07:28;;;;;;;6.68;3.65;;;;;;;;;;4978667;28;20484;-84
2021/01/27 00:09:54;;;;;;;8.70;4.25;;;;;;;;;;4979132;28;20051;-84
2021/01/27 00:12:20;;;;;;;7.90;3.83;;;;;;;;;;4979232;28;20491;-84
2021/01/27 00:14:46;;;;;;;8.73;3.92;;;;;;;;;;4978942;28;20060;-84
2021/01/27 00:17:13;;;;;;;7.38;3.80;;;;;;;;;;4978663;28;20137;-84
2021/01/27 00:19:39;;;;;;;8.82;4.07;;;;;;;;;;4979177;28;20798;-84
2021/01/27 00:22:05;;;;;;;6.20;3.65;;;;;;;;;;4978847;28;20062;-84
2021/01/27 00:24:31;;;;;;;5.93;3.30;;;;;;;;;;4977934;28;20050;-84
2021/01/27 00:26:57;;;;;;;7.20;3.90;;;;;;;;;;4978399;28;20047;-84
2021/01/27 00:29:23;;;;;;;4.00;3.00;;;;;;;;;;4978274;28;20078;-84
2021/01/27 00:31:49;;;;;;;7.70;3.67;;;;;;;;;;4978529;28;20074;-84
2021/01/27 00:34:20;;;;;;;6.93;3.65;;;;;;;;;;4978534;28;20046;-84
2021/01/27 00:36:46;;;;;;;7.00;3.50;;;;;;;;;;4979259;28;20050;-83
2021/01/27 00:39:12;;;;;;;8.18;3.58;;;;;;;;;;4978747;28;20100;-84
2021/01/27 00:41:38;;;;;;;9.00;3.92;;;;;;;;;;4978638;28;20055;-84
2021/01/27 00:44:04;;;;;;;7.07;3.47;;;;;;;;;;4978696;28;20083;-82
2021/01/27 00:46:30;;;;;;;5.47;3.67;;;;;;;;;;4982800;28;20047;-83
2021/01/27 00:48:56;;;;;;;6.32;3.47;;;;;;;;;;4982287;28;20050;-84
2021/01/27 00:51:23;;;;;;;6.95;3.65;;;;;;;;;;4981716;28;20047;-83
2021/01/27 00:53:49;;;;;;;6.18;3.40;;;;;;;;;;4982680;28;20050;-83
2021/01/27 00:56:18;;;;;;;6.53;3.42;;;;;;;;;;4982505;28;20055;-83
2021/01/27 00:58:44;;;;;;;6.97;3.30;;;;;;;;;;4982618;28;20495;-83
2021/01/27 01:01:10;;;;;;;7.65;4.32;;;;;;;;;;4982703;28;20059;-84
2021/01/27 01:03:36;;;;;;;7.57;3.42;;;;;;;;;;4982521;28;20408;-83
2021/01/27 01:06:02;;;;;;;7.47;3.45;;;;;;;;;;4983037;28;20384;-83
2021/01/27 01:08:29;;;;;;;6.78;3.20;;;;;;;;;;4982240;28;20055;-83
2021/01/27 01:10:59;;;;;;;6.63;3.45;;;;;;;;;;4983182;28;20047;-83
2021/01/27 01:13:26;;;;;;;4.78;2.92;;;;;;;;;;4982941;28;20051;-83
2021/01/27 01:15:53;;;;;;;8.80;3.55;;;;;;;;;;4982220;28;20065;-84
2021/01/27 01:18:19;;;;;;;7.88;3.28;;;;;;;;;;4982231;28;20047;-84
2021/01/27 01:20:47;;;;;;;6.55;3.45;;;;;;;;;;4983024;28;20058;-84
2021/01/27 01:23:14;;;;;;;7.10;3.55;;;;;;;;;;4982560;28;20104;-84
2021/01/27 01:25:41;;;;;;;6.53;3.53;;;;;;;;;;4982289;28;20042;-84
2021/01/27 01:28:08;;;;;;;8.30;3.67;;;;;;;;;;4982725;28;20065;-84
2021/01/27 01:30:36;;;;;;;5.00;3.15;;;;;;;;;;4981584;28;20047;-84
2021/01/27 01:33:03;;;;;;;5.53;3.55;;;;;;;;;;4982693;28;20051;-84
2021/01/27 01:35:29;;;;;;;6.28;3.13;;;;;;;;;;4981962;28;20046;-84
2021/01/27 01:37:55;;;;;;;7.95;4.05;;;;;;;;;;4982525;28;20050;-84
2021/01/27 01:40:25;;;;;;;6.38;3.33;;;;;;;;;;4981712;28;20058;-84
2021/01/27 01:43:06;;;;;;;7.10;3.42;;;;;;;;;;4981918;28;20086;-83
2021/01/27 01:45:35;;;;;;;8.82;3.70;;;;;;;;;;4982292;28;20110;-84
2021/01/27 01:48:08;;;;;;;8.55;3.88;;;;;;;;;;4982132;28;20046;-83
2021/01/27 01:50:34;;;;;;;8.48;4.05;;;;;;;;;;4982626;28;20480;-84
2021/01/27 01:53:00;;;;;;;6.43;3.42;;;;;;;;;;4982317;28;20499;-84
2021/01/27 01:55:27;;;;;;;5.38;3.00;;;;;;;;;;4981918;28;20129;-83
2021/01/27 01:57:54;;;;;;;5.85;2.97;;;;;;;;;;4981632;28;20055;-83
2021/01/27 02:00:23;;;;;;;7.93;4.53;;;;;;;;;;4981995;28;20051;-84
2021/01/27 02:02:50;;;;;;;5.03;3.03;;;;;;;;;;4969391;23;20051;-85
2021/01/27 02:05:17;;;;;;;5.18;2.83;;;;;;;;;;4943553;29;20044;-85
2021/01/27 02:07:43;;;;;;;7.80;3.20;;;;;;;;;;4944168;29;20048;-84
2021/01/27 02:10:10;;;;;;;5.30;2.63;;;;;;;;;;4943809;29;20040;-84
2021/01/27 02:12:48;;;;;;;6.35;2.78;;;;;;;;;;4944415;29;20039;-85
2021/01/27 02:15:28;;;;;;;7.50;3.03;;;;;;;;;;4924380;29;20047;-83
2021/01/27 02:17:57;;;;;;;5.55;2.90;;;;;;;;;;4923652;29;20044;-84
2021/01/27 02:20:53;;;;;;;5.18;3.35;;;;;;;;;;4924297;29;20119;-84
2021/01/27 02:23:55;;;;;;;5.43;3.00;;;;;;;;;;4924071;29;20551;-84
2021/01/27 02:26:32;;;;;;;7.85;3.20;;;;;;;;;;4894667;29;20044;-84
2021/01/27 02:29:06;;;;;;;6.85;3.20;;;;;;;;;;4923630;29;20051;-86
2021/01/27 02:31:38;;;;;;;6.07;3.13;;;;;;;;;;4924469;29;20051;-84
2021/01/27 02:34:36;;;;;;;7.57;3.13;;;;;;;;;;4924121;29;20048;-87
2021/01/27 02:37:04;;;;;;;4.47;2.67;;;;;;;;;;4924262;29;20044;-85
2021/01/27 02:39:33;;;;;;;7.13;3.25;;;;;;;;;;4925326;29;20044;-86
2021/01/27 02:42:03;;;;;;;6.07;2.67;;;;;;;;;;4923843;29;20469;-86
2021/01/27 02:44:34;;;;;;;5.88;2.83;;;;;;;;;;4891542;29;20472;-86
2021/01/27 02:47:03;;;;;;;4.05;2.53;;;;;;;;;;4924118;29;20043;-87
2021/01/27 02:49:34;;;;;;;6.30;2.85;;;;;;;;;;4924674;29;20370;-86
2021/01/27 02:52:04;;;;;;;5.57;2.75;;;;;;;;;;4915112;29;20040;-87
2021/01/27 02:54:33;;;;;;;10.20;3.28;;;;;;;;;;4934894;29;20492;-86
2021/01/27 02:57:03;;;;;;;6.40;2.85;;;;;;;;;;4940057;29;20055;-84
2021/01/27 02:59:35;;;;;;;7.13;3.15;;;;;;;;;;4925594;29;20055;-83
2021/01/27 03:02:06;;;;;;;7.45;3.55;;;;;;;;;;4905722;29;20143;-84
2021/01/27 03:04:35;;;;;;;6.05;2.83;;;;;;;;;;4890803;29;20044;-84
2021/01/27 03:07:02;;;;;;;10.25;3.70;;;;;;;;;;4921125;29;20508;-86
2021/01/27 03:09:32;;;;;;;7.63;3.80;;;;;;;;;;4922367;29;20048;-85
2021/01/27 03:11:58;;;;;;;7.25;3.63;;;;;;;;;;4921793;29;20136;-84
2021/01/27 03:14:24;;;;;;;7.10;3.05;;;;;;;;;;4905337;29;20063;-86
2021/01/27 03:16:54;;;;;;;8.23;5.30;;;;;;;;;;4905186;29;20044;-88
2021/01/27 03:19:24;;;;;;;8.98;3.45;;;;;;;;;;4922722;29;20076;-84
2021/01/27 03:21:54;;;;;;;5.97;3.33;;;;;;;;;;4922822;29;20128;-84
2021/01/27 03:24:22;;;;;;;4.40;2.70;;;;;;;;;;4922930;29;20048;-84
2021/01/27 03:26:56;;;;;;;6.80;3.55;;;;;;;;;;4922056;29;20092;-84
2021/01/27 03:29:27;;;;;;;5.03;3.03;;;;;;;;;;4922219;29;20052;-85
2021/01/27 03:31:56;;;;;;;5.15;2.97;;;;;;;;;;4921988;29;20048;-85
2021/01/27 03:34:24;;;;;;;8.55;4.07;;;;;;;;;;4922184;29;20044;-84
2021/01/27 03:36:55;;;;;;;7.25;4.32;;;;;;;;;;4905734;29;20044;-84
2021/01/27 03:39:23;;;;;;;8.68;4.60;;;;;;;;;;4904924;29;20517;-87
2021/01/27 03:41:57;;;;;;;7.63;4.60;;;;;;;;;;4923034;29;20455;-85
2021/01/27 03:44:27;;;;;;;9.82;3.60;;;;;;;;;;4902161;29;20055;-84
2021/01/27 03:46:57;;;;;;;8.70;3.67;;;;;;;;;;4886611;29;20120;-84
2021/01/27 03:49:27;;;;;;;8.93;4.50;;;;;;;;;;4903586;29;20060;-87
2021/01/27 03:52:08;;;;;;;7.15;3.75;;;;;;;;;;4886470;29;20088;-87
2021/01/27 03:54:38;;;;;;;7.60;3.85;;;;;;;;;;4903689;29;20056;-84
2021/01/27 03:57:06;;;;;;;4.65;2.88;;;;;;;;;;4903882;29;20045;-84
2021/01/27 03:59:32;;;;;;;6.50;3.85;;;;;;;;;;4904118;29;20048;-84
2021/01/27 04:01:59;;;;;;;8.07;3.90;;;;;;;;;;4903597;29;20044;-84
2021/01/27 04:04:27;;;;;;;7.68;3.15;;;;;;;;;;4903496;29;20073;-84
2021/01/27 04:06:53;;;;;;;5.80;2.92;;;;;;;;;;4902948;29;20052;-84
2021/01/27 04:09:19;;;;;;;7.10;3.70;;;;;;;;;;4903038;29;20052;-84
2021/01/27 04:11:46;;;;;;;6.30;3.60;;;;;;;;;;4886500;29;20052;-84
2021/01/27 04:14:12;;;;;;;9.77;4.65;;;;;;;;;;4903253;29;20049;-85
2021/01/27 04:16:38;;;;;;;8.98;4.22;;;;;;;;;;4886240;29;20104;-84
2021/01/27 04:19:06;;;;;;;7.07;4.53;;;;;;;;;;4903065;29;20056;-84
2021/01/27 04:21:32;;;;;;;9.68;4.55;;;;;;;;;;4903121;29;20048;-84
2021/01/27 04:23:58;;;;;;;11.52;5.47;;;;;;;;;;4886428;29;20131;-84
2021/01/27 04:26:24;;;;;;;11.40;5.65;;;;;;;;;;4887066;29;20056;-84
2021/01/27 04:28:51;;;;;;;10.07;5.32;;;;;;;;;;4904004;29;20075;-84
2021/01/27 04:31:17;;;;;;;13.90;5.55;;;;;;;;;;4903813;29;20048;-84
2021/01/27 04:33:43;;;;;;;9.25;4.57;;;;;;;;;;4886659;29;20053;-84
2021/01/27 04:36:09;;;;;;;11.13;4.47;;;;;;;;;;4903224;29;20052;-84
2021/01/27 04:38:36;;;;;;;8.77;4.43;;;;;;;;;;4886329;29;20268;-84
2021/01/27 04:41:02;;;;;;;8.82;4.63;;;;;;;;;;4870959;29;20076;-84
2021/01/27 04:43:30;;;;;;;8.18;4.15;;;;;;;;;;4886468;29;20056;-84
2021/01/27 04:46:02;;;;;;;11.38;4.72;;;;;;;;;;4903532;29;20406;-86
2021/01/27 04:48:36;;;;;;;9.70;4.25;;;;;;;;;;4903645;29;20044;-87
2021/01/27 04:51:04;;;;;;;9.63;4.32;;;;;;;;;;4902757;29;20094;-85
2021/01/27 04:53:39;;;;;;;10.63;4.60;;;;;;;;;;4903133;29;20048;-86
2021/01/27 04:56:39;;;;;;;12.98;6.25;;;;;;;;;;4904269;29;20044;-84
2021/01/27 04:59:12;;;;;;;16.17;7.03;;;;;;;;;;4813977;29;20045;-86
2021/01/27 05:01:50;;;;;;;16.65;7.43;;;;;;;;;;4901366;29;20465;-84
2021/01/27 05:04:22;;;;;;;10.63;6.63;;;;;;;;;;4904974;29;20428;-85
2021/01/27 05:06:53;;;;;;;15.93;7.28;;;;;;;;;;4886675;29;20452;-84
2021/01/27 05:09:30;;;;;;;12.95;6.70;;;;;;;;;;4882802;29;20135;-84
2021/01/27 05:11:56;;;;;;;13.73;6.20;;;;;;;;;;4899264;29;20075;-84
2021/01/27 05:14:23;;;;;;;11.32;6.10;;;;;;;;;;4899593;29;20060;-84
2021/01/27 05:16:51;;;;;;;10.10;6.35;;;;;;;;;;4899401;29;20493;-84
2021/01/27 05:19:17;;;;;;;9.57;5.55;;;;;;;;;;4900229;29;20334;-84
2021/01/27 05:21:46;;;;;;;13.57;6.47;;;;;;;;;;4882802;29;20049;-83
2021/01/27 05:24:14;;;;;;;8.48;4.88;;;;;;;;;;4899658;29;20064;-84
2021/01/27 05:26:42;;;;;;;9.90;4.55;;;;;;;;;;4899075;29;20477;-84
2021/01/27 05:29:13;;;;;;;7.75;4.32;;;;;;;;;;4881282;29;20429;-83
2021/01/27 05:32:09;;;;;;;7.50;4.18;;;;;;;;;;4902098;29;20131;-84
2021/01/27 05:41:41;;;;;;;9.90;5.72;;;;;;;;;;4903635;29;20047;-85
2021/01/27 05:48:09;;;;;;;10.90;5.13;;;;;;;;;;4902453;29;20038;-85
2021/01/27 05:50:38;;;;;;;9.93;4.88;;;;;;;;;;4902163;29;20488;-85
2021/01/27 05:53:12;;;;;;;9.38;5.25;;;;;;;;;;4903374;29;20044;-84
2021/01/27 05:55:39;;;;;;;10.98;5.60;;;;;;;;;;4904348;29;20049;-85
2021/01/27 05:58:05;;;;;;;9.95;6.07;;;;;;;;;;4887032;29;20049;-86
2021/01/27 06:00:31;;;;;;;13.57;6.05;;;;;;;;;;4886973;29;20040;-87
2021/01/27 06:03:00;;;;;;;9.02;5.53;;;;;;;;;;4887342;29;20401;-85
2021/01/27 06:05:38;;;;;;;12.07;5.40;;;;;;;;;;4886559;29;20385;-85
2021/01/27 06:08:22;;;;;;;9.95;5.68;;;;;;;;;;4904179;29;20063;-83
2021/01/27 06:10:49;;;;;;;12.60;6.63;;;;;;;;;;4902736;29;20044;-84
2021/01/27 06:13:27;;;;;;;9.50;5.63;;;;;;;;;;4901896;29;20056;-84
2021/01/27 06:15:54;;;;;;;11.77;5.80;;;;;;;;;;4903619;29;20036;-85
2021/01/27 06:18:26;;;;;;;10.50;5.43;;;;;;;;;;4905322;29;20044;-84
2021/01/27 06:21:50;;;;;;;9.27;4.82;;;;;;;;;;4905107;29;20088;-85
2021/01/27 06:28:10;;;;;;;10.98;6.53;;;;;;;;;;4906521;29;20043;-85
2021/01/27 06:33:52;;;;;;;9.35;4.82;;;;;;;;;;4879896;29;20049;-86
2021/01/27 06:36:33;;;;;;;8.98;5.28;;;;;;;;;;4931562;29;20071;-84
2021/01/27 06:39:12;;;;;;;8.43;5.22;;;;;;;;;;4926088;29;20067;-84
2021/01/27 06:45:40;;;;;;;8.57;4.68;;;;;;;;;;4917728;29;20103;-85
2021/01/27 06:51:40;;;;;;;8.07;4.03;;;;;;;;;;4916562;29;20068;-85
2021/01/27 06:54:24;;;;;;;10.23;4.10;;;;;;;;;;4926119;29;20047;-86
2021/01/27 06:57:10;;;;;;;7.85;3.80;;;;;;;;;;4910738;29;20050;-88
2021/01/27 06:59:51;;;;;;;6.80;3.70;;;;;;;;;;4929187;29;20046;-85
2021/01/27 07:02:41;;;;;;;7.03;3.78;;;;;;;;;;4913984;29;20130;-84
2021/01/27 07:05:22;;;;;;;6.30;3.58;;;;;;;;;;4900983;29;20053;-84
2021/01/27 07:08:09;;;;;;;6.43;3.80;;;;;;;;;;4903083;29;20044;-84
2021/01/27 07:10:50;;;;;;;8.77;4.60;;;;;;;;;;4919982;29;20059;-84
2021/01/27 07:13:49;;;;;;;11.43;5.80;;;;;;;;;;4919619;29;20044;-84
2021/01/27 07:16:21;;;;;;;16.85;8.23;;;;;;;;;;4915134;29;20052;-84
2021/01/27 07:19:27;;;;;;;13.98;7.22;;;;;;;;;;4920434;29;20048;-84
2021/01/27 07:21:57;;;;;;;19.15;9.02;;;;;;;;;;4921112;29;20044;-84
2021/01/27 07:24:25;;;;;;;20.98;8.68;;;;;;;;;;4920347;29;20148;-84
2021/01/27 07:26:55;;;;;;;14.48;7.80;;;;;;;;;;4904366;29;20044;-84
2021/01/27 07:29:22;;;;;;;14.68;7.47;;;;;;;;;;4922563;29;20452;-86
2021/01/27 07:31:54;;;;;;;15.07;7.75;;;;;;;;;;4922511;29;20499;-84
2021/01/27 07:34:27;;;;;;;19.67;9.10;;;;;;;;;;4905809;29;20056;-83
2021/01/27 07:37:01;;;;;;;18.10;9.82;;;;;;;;;;4921903;29;20051;-84
2021/01/27 07:39:32;;;;;;;14.75;8.43;;;;;;;;;;4921050;29;20073;-84
2021/01/27 07:42:07;;;;;;;13.15;6.80;;;;;;;;;;4895155;29;20044;-83
2021/01/27 07:44:34;;;;;;;12.95;5.32;;;;;;;;;;4901256;29;20072;-88
2021/01/27 07:47:04;;;;;;;10.85;4.75;;;;;;;;;;4920623;29;20407;-85
2021/01/27 07:49:42;;;;;;;9.27;4.97;;;;;;;;;;4919303;29;20059;-83
2021/01/27 07:52:14;;;;;;;12.65;4.72;;;;;;;;;;4916924;29;20048;-83
2021/01/27 07:54:43;;;;;;;16.50;8.70;;;;;;;;;;4903968;29;20044;-84
2021/01/27 07:57:25;;;;;;;22.20;11.15;;;;;;;;;;4903485;29;20528;-84
2021/01/27 07:59:57;;;;;;;19.33;10.68;;;;;;;;;;4909558;29;20600;-83
2021/01/27 08:02:25;;;;;;;18.02;11.02;;;;;;;;;;4915824;29;20389;-83
2021/01/27 08:04:56;;;;;;;18.35;9.60;;;;;;;;;;4919444;29;20043;-84
2021/01/27 08:07:30;;;;;;;16.05;9.45;;;;;;;;;;4925908;29;20397;-83
2021/01/27 08:10:06;;;;;;;18.48;10.20;;;;;;;;;;4912487;29;20518;-84
2021/01/27 08:12:38;;;;;;;16.10;10.02;;;;;;;;;;4921006;29;20047;-83
2021/01/27 08:15:08;;;;;;;21.60;12.48;;;;;;;;;;4995861;23;20078;-84
2021/01/27 08:17:40;;;;;;;22.73;10.25;;;;;;;;;;4979765;28;20054;-83
2021/01/27 08:20:23;;;;;;;20.80;11.48;;;;;;;;;;4979288;28;20053;-83
2021/01/27 08:22:54;;;;;;;17.42;8.93;;;;;;;;;;4979838;28;20062;-83
2021/01/27 08:25:54;;;;;;;22.00;14.23;;;;;;;;;;4979258;28;20142;-84
2021/01/27 08:28:40;;;;;;;26.52;15.00;;;;;;;;;;4981804;28;20096;-83
2021/01/27 08:31:23;;;;;;;22.00;13.65;;;;;;;;;;4985254;28;20532;-84
2021/01/27 08:33:54;;;;;;;19.70;12.07;;;;;;;;;;4996472;28;20061;-83
2021/01/27 08:36:42;;;;;;;17.27;11.82;;;;;;;;;;4996795;28;20050;-83
2021/01/27 08:39:11;;;;;;;17.95;9.85;;;;;;;;;;4980640;28;20047;-83
2021/01/27 08:41:43;;;;;;;19.58;9.15;;;;;;;;;;4977586;28;20058;-83
2021/01/27 08:44:13;;;;;;;9.57;5.68;;;;;;;;;;4985360;28;20403;-82
2021/01/27 08:46:44;;;;;;;9.38;5.40;;;;;;;;;;4997258;28;20042;-83
2021/01/27 08:49:11;;;;;;;10.07;5.25;;;;;;;;;;4995982;28;20518;-82
2021/01/27 08:51:49;;;;;;;11.75;5.97;;;;;;;;;;4996629;28;20118;-83
2021/01/27 08:54:28;;;;;;;11.02;5.60;;;;;;;;;;4996313;28;20069;-82
2021/01/27 08:57:16;;;;;;;10.57;6.90;;;;;;;;;;4995949;28;20051;-82
2021/01/27 08:59:59;;;;;;;23.63;13.77;;;;;;;;;;4962425;28;20123;-82
2021/01/27 09:02:59;;;;;;;36.85;20.10;;;;;;;;;;4997013;28;20057;-83
2021/01/27 09:09:14;;;;;;;15.55;7.75;;;;;;;;;;4864367;29;20071;-83
2021/01/27 09:20:14;;;;;;;58.67;24.08;;;;;;;;;;4975346;23;20062;-82
2021/01/27 09:22:40;;;;;;;38.70;16.67;;;;;;;;;;4961392;29;20420;-84
2021/01/27 09:25:07;;;;;;;21.25;10.15;;;;;;;;;;4960873;29;20079;-86
2021/01/27 09:27:33;;;;;;;10.05;5.55;;;;;;;;;;4960685;29;20070;-84
2021/01/27 09:30:04;;;;;;;8.45;4.28;;;;;;;;;;4944946;29;20086;-82
2021/01/27 09:32:31;;;;;;;6.72;4.13;;;;;;;;;;4958182;29;20055;-88
2021/01/27 09:35:20;;;;;;;7.30;3.03;;;;;;;;;;4944386;29;20055;-83
2021/01/27 09:37:52;;;;;;;8.90;3.53;;;;;;;;;;4958580;29;20384;-82
2021/01/27 09:40:26;;;;;;;7.15;2.97;;;;;;;;;;4955825;29;20140;-84
2021/01/27 09:42:56;;;;;;;6.38;2.85;;;;;;;;;;4950723;28;20368;-83
2021/01/27 09:45:26;;;;;;;7.47;3.80;;;;;;;;;;4941701;29;20086;-83
2021/01/27 09:47:53;;;;;;;6.90;3.97;;;;;;;;;;4941276;29;20055;-82
2021/01/27 09:53:55;;;;;;;5.18;3.03;;;;;;;;;;4942703;29;20067;-83
2021/01/27 10:03:28;;;;;;;8.48;5.18;;;;;;;;;;4934923;29;20103;-83
2021/01/27 10:20:34;;;;;;;7.72;3.90;;;;;;;;;;5312111;23;20055;-82
2021/01/27 10:23:01;;;;;;;6.07;3.58;;;;;;;;;;4965335;29;20054;-82
2021/01/27 10:25:50;;;;;;;6.57;3.28;;;;;;;;;;4947983;29;20090;-82
2021/01/27 10:35:36;;;;;;;6.85;3.67;;;;;;;;;;4962494;28;20047;-81
2021/01/27 10:51:32;;;;;;;6.95;2.33;;;;;;;;;;4964348;28;20047;-81
2021/01/27 10:53:58;;;;;;;5.53;2.50;;;;;;;;;;4965994;29;20062;-81
2021/01/27 10:56:23;;;;;;;5.70;3.42;;;;;;;;;;4965914;29;20051;-81
2021/01/27 11:06:13;;;;;;;4.28;2.50;;;;;;;;;;4964221;28;20107;-82
2021/01/27 11:08:42;;;;;;;6.85;3.10;;;;;;;;;;4962663;29;20055;-81
2021/01/27 11:11:08;;;;;;;6.40;3.72;;;;;;;;;;4963496;29;20058;-82
2021/01/27 11:26:31;;;;;;;9.52;4.28;;;;;;;;;;5576934;23;20078;-82
2021/01/27 11:28:57;;;;;;;6.70;3.20;;;;;;;;;;4920029;29;20059;-82
2021/01/27 11:31:25;;;;;;;4.55;1.80;;;;;;;;;;4933530;29;20489;-82
2021/01/27 11:33:51;;;;;;;4.25;2.40;;;;;;;;;;4944149;29;20051;-82
2021/01/27 11:36:19;;;;;;;9.07;5.40;;;;;;;;;;4926556;29;20390;-83
2021/01/27 11:38:45;;;;;;;6.18;2.72;;;;;;;;;;4923470;29;20052;-82
2021/01/27 11:41:11;;;;;;;7.10;3.55;;;;;;;;;;4923373;29;20056;-82
2021/01/27 11:43:41;;;;;;;9.35;4.97;;;;;;;;;;4924012;29;20052;-82
2021/01/27 11:46:08;;;;;;;6.47;2.88;;;;;;;;;;4923035;29;20048;-81
2021/01/27 11:48:33;;;;;;;5.38;2.60;;;;;;;;;;4923245;29;20047;-82
2021/01/27 11:51:00;;;;;;;5.72;3.25;;;;;;;;;;4922281;29;20048;-84
2021/01/27 11:53:26;;;;;;;4.78;2.72;;;;;;;;;;4924383;29;20044;-84
2021/01/27 11:55:52;;;;;;;5.90;3.17;;;;;;;;;;4941454;29;20055;-82
2021/01/27 11:58:18;;;;;;;6.63;3.28;;;;;;;;;;4942048;29;20051;-82
2021/01/27 12:04:07;;;;;;;6.15;2.83;;;;;;;;;;4943248;29;20065;-82
2021/01/27 12:07:00;;;;;;;5.80;3.53;;;;;;;;;;4942634;29;20393;-81
2021/01/27 12:09:28;;;;;;;5.25;2.92;;;;;;;;;;4941096;29;20500;-84
2021/01/27 12:11:54;;;;;;;5.22;2.80;;;;;;;;;;4941151;29;20142;-81
2021/01/27 12:14:20;;;;;;;8.25;2.78;;;;;;;;;;5316934;23;20046;-81
2021/01/27 12:23:35;;;;;;;5.13;2.72;;;;;;;;;;4998956;28;20046;-81
2021/01/27 12:26:01;;;;;;;4.95;2.90;;;;;;;;;;4982679;28;20492;-81
2021/01/27 12:32:25;;;;;;;4.22;2.97;;;;;;;;;;4997792;28;20450;-81
2021/01/27 12:49:27;;;;;;;5.93;2.92;;;;;;;;;;5001362;28;20450;-82
2021/01/27 12:55:18;;;;;;;5.15;3.08;;;;;;;;;;5002078;28;20045;-82
2021/01/27 12:57:45;;;;;;;4.97;2.75;;;;;;;;;;5001624;28;20101;-81
2021/01/27 13:00:15;;;;;;;5.78;2.80;;;;;;;;;;5001261;28;20057;-82
2021/01/27 13:02:41;;;;;;;5.25;2.83;;;;;;;;;;5001324;28;20046;-82
2021/01/27 13:05:40;;;;;;;5.63;3.33;;;;;;;;;;5000889;28;20110;-82
2021/01/27 13:08:06;;;;;;;4.05;2.85;;;;;;;;;;5000988;28;20506;-81
2021/01/27 13:10:34;;;;;;;6.95;3.65;;;;;;;;;;5001601;28;20086;-81
2021/01/27 13:19:10;;;;;;;9.77;5.88;;;;;;;;;;5207038;23;20062;-81
2021/01/27 13:24:22;;;;;;;6.45;2.85;;;;;;;;;;4957907;29;20062;-81
2021/01/27 13:26:49;;;;;;;4.97;3.08;;;;;;;;;;4960739;29;20047;-82
2021/01/27 13:29:15;;;;;;;6.25;2.92;;;;;;;;;;4961446;29;20058;-82
2021/01/27 13:31:41;;;;;;;4.32;3.30;;;;;;;;;;4960455;29;20055;-81
2021/01/27 13:34:23;;;;;;;5.88;2.30;;;;;;;;;;4960892;29;20062;-81
2021/01/27 13:36:59;;;;;;;6.57;2.38;;;;;;;;;;4961336;29;20043;-82
2021/01/27 13:39:25;;;;;;;4.93;2.72;;;;;;;;;;4943499;29;20112;-81
2021/01/27 13:41:52;;;;;;;5.80;3.10;;;;;;;;;;4961247;29;20047;-81
2021/01/27 13:44:19;;;;;;;5.72;3.20;;;;;;;;;;4961597;29;20048;-81
2021/01/27 13:46:45;;;;;;;6.75;4.53;;;;;;;;;;4927646;29;20444;-82
2021/01/27 13:49:11;;;;;;;9.32;6.05;;;;;;;;;;4942151;29;20055;-82
2021/01/27 13:51:37;;;;;;;10.38;7.85;;;;;;;;;;4957549;28;20063;-82
2021/01/27 13:54:03;;;;;;;6.93;5.47;;;;;;;;;;4951654;29;20051;-81
2021/01/27 13:56:29;;;;;;;5.05;2.78;;;;;;;;;;4950353;29;20066;-82
2021/01/27 13:58:55;;;;;;;4.53;2.78;;;;;;;;;;4960569;29;20437;-81
2021/01/27 14:01:21;;;;;;;3.88;2.53;;;;;;;;;;4953752;29;20511;-81
2021/01/27 14:03:47;;;;;;;3.63;2.83;;;;;;;;;;4941053;29;20052;-81
2021/01/27 14:06:14;;;;;;;4.72;2.60;;;;;;;;;;4954201;29;20051;-82
2021/01/27 14:08:40;;;;;;;4.25;2.58;;;;;;;;;;4958061;29;20106;-81
2021/01/27 14:11:06;;;;;;;5.72;3.42;;;;;;;;;;4947549;29;20060;-80
2021/01/27 14:13:32;;;;;;;4.15;2.40;;;;;;;;;;4945780;29;20051;-80
2021/01/27 14:15:59;;;;;;;5.40;2.45;;;;;;;;;;4940663;29;20048;-83
2021/01/27 14:18:25;;;;;;;4.03;2.60;;;;;;;;;;4942245;29;20052;-84
2021/01/27 14:20:52;;;;;;;3.17;2.13;;;;;;;;;;4941099;29;20043;-82
2021/01/27 14:23:18;;;;;;;5.00;3.45;;;;;;;;;;4950119;29;20051;-83
2021/01/27 14:25:44;;;;;;;4.43;2.17;;;;;;;;;;4948068;29;20048;-82
2021/01/27 14:28:10;;;;;;;4.28;2.00;;;;;;;;;;4944958;29;20048;-82
2021/01/27 14:30:40;;;;;;;4.57;2.50;;;;;;;;;;4942100;29;20140;-82
2021/01/27 14:33:07;;;;;;;4.38;2.40;;;;;;;;;;4940812;29;20051;-82
2021/01/27 14:35:33;;;;;;;5.88;3.22;;;;;;;;;;4941714;29;20052;-79
2021/01/27 14:37:59;;;;;;;4.57;2.88;;;;;;;;;;4941613;29;20088;-81
2021/01/27 14:40:27;;;;;;;4.95;2.60;;;;;;;;;;4945284;29;20071;-79
2021/01/27 14:42:53;;;;;;;4.00;2.20;;;;;;;;;;4959951;29;20115;-84
2021/01/27 14:46:14;;;;;;;2.97;1.83;;;;;;;;;;4944922;29;20048;-82
2021/01/27 14:48:41;;;;;;;4.53;2.83;;;;;;;;;;4945834;29;20054;-84
2021/01/27 14:51:07;;;;;;;4.28;2.50;;;;;;;;;;4951742;29;20047;-84
2021/01/27 14:53:33;;;;;;;3.80;2.30;;;;;;;;;;4940340;29;20067;-84
2021/01/27 14:55:59;;;;;;;3.92;2.45;;;;;;;;;;4949572;29;20059;-82
2021/01/27 14:58:25;;;;;;;4.18;2.40;;;;;;;;;;4939561;29;20051;-82
2021/01/27 15:00:51;;;;;;;3.83;2.80;;;;;;;;;;4953182;29;20047;-82
2021/01/27 15:03:17;;;;;;;4.80;2.40;;;;;;;;;;4937925;29;20094;-82
2021/01/27 15:05:44;;;;;;;4.65;2.20;;;;;;;;;;4939015;29;20063;-79
2021/01/27 15:08:10;;;;;;;3.30;2.13;;;;;;;;;;4939702;29;20062;-81
2021/01/27 15:10:36;;;;;;;4.78;2.83;;;;;;;;;;4939162;29;20052;-82
2021/01/27 15:13:02;;;;;;;4.55;2.50;;;;;;;;;;4932910;29;20047;-81
2021/01/27 15:15:28;;;;;;;4.80;2.78;;;;;;;;;;4938311;29;20563;-83
2021/01/27 15:18:46;;;;;;;20.40;3.70;;;;;;;;;;4938784;29;20051;-82
2021/01/27 15:21:12;;;;;;;4.90;2.95;;;;;;;;;;4938822;29;20091;-81
2021/01/27 15:23:38;;;;;;;3.63;2.38;;;;;;;;;;4919907;29;20052;-81
2021/01/27 15:26:04;;;;;;;4.65;2.45;;;;;;;;;;4934443;29;20048;-82
2021/01/27 15:28:30;;;;;;;5.05;2.95;;;;;;;;;;4938606;29;20048;-81
2021/01/27 15:30:56;;;;;;;5.35;3.15;;;;;;;;;;4938556;29;20079;-80
2021/01/27 15:33:22;;;;;;;4.70;2.70;;;;;;;;;;4938259;29;20059;-81
2021/01/27 15:35:48;;;;;;;4.88;3.10;;;;;;;;;;4938089;29;20048;-81
2021/01/27 15:38:15;;;;;;;5.63;3.35;;;;;;;;;;4938735;29;20059;-80
2021/01/27 15:40:41;;;;;;;5.07;3.13;;;;;;;;;;4917675;29;20512;-82
2021/01/27 15:43:11;;;;;;;7.22;3.92;;;;;;;;;;4905136;29;20043;-81
2021/01/27 15:45:37;;;;;;;5.43;3.63;;;;;;;;;;4937975;29;20048;-80
2021/01/27 15:48:04;;;;;;;8.43;5.72;;;;;;;;;;4938396;29;20050;-81
2021/01/27 15:50:33;;;;;;;7.22;4.50;;;;;;;;;;4937648;29;20061;-80
2021/01/27 15:53:00;;;;;;;7.30;5.10;;;;;;;;;;4933336;29;20067;-83
2021/01/27 15:55:26;;;;;;;10.00;6.72;;;;;;;;;;4940080;29;20182;-83
2021/01/27 15:57:53;;;;;;;8.55;4.97;;;;;;;;;;4939632;29;20048;-81
2021/01/27 16:00:20;;;;;;;6.68;3.90;;;;;;;;;;4934585;29;20071;-83
2021/01/27 16:02:46;;;;;;;7.78;4.95;;;;;;;;;;4939085;29;20040;-81
2021/01/27 16:05:14;;;;;;;11.07;6.80;;;;;;;;;;4936591;29;20096;-81
2021/01/27 16:07:42;;;;;;;7.63;5.30;;;;;;;;;;4937559;29;20076;-82
2021/01/27 16:10:11;;;;;;;10.93;5.47;;;;;;;;;;4937327;29;20048;-83
2021/01/27 16:12:37;;;;;;;10.52;5.60;;;;;;;;;;4937095;29;20064;-81
2021/01/27 16:15:05;;;;;;;9.00;5.07;;;;;;;;;;4931116;29;20055;-81
2021/01/27 16:17:31;;;;;;;7.88;4.60;;;;;;;;;;4937516;29;20056;-82
2021/01/27 16:19:57;;;;;;;6.03;3.67;;;;;;;;;;4936689;29;20079;-80
2021/01/27 16:22:23;;;;;;;12.68;6.65;;;;;;;;;;4937939;29;20059;-81
2021/01/27 16:25:01;;;;;;;14.77;7.40;;;;;;;;;;4938085;29;20051;-80
2021/01/27 16:27:27;;;;;;;20.80;11.25;;;;;;;;;;4937260;29;20052;-80
2021/01/27 16:29:54;;;;;;;13.43;7.78;;;;;;;;;;4938059;29;20058;-80
2021/01/27 16:32:21;;;;;;;13.05;6.82;;;;;;;;;;4934988;29;20076;-82
2021/01/27 16:34:47;;;;;;;15.55;7.30;;;;;;;;;;4935153;29;20044;-81
2021/01/27 16:37:14;;;;;;;8.82;4.43;;;;;;;;;;4937553;29;20282;-81
2021/01/27 16:39:43;;;;;;;8.25;4.18;;;;;;;;;;4904088;29;20457;-81
2021/01/27 16:42:09;;;;;;;9.27;4.35;;;;;;;;;;4927421;29;20103;-82
2021/01/27 16:44:35;;;;;;;12.57;7.95;;;;;;;;;;4919373;29;20091;-81
2021/01/27 16:47:02;;;;;;;14.88;10.25;;;;;;;;;;4952675;29;20043;-83
2021/01/27 16:49:28;;;;;;;10.27;5.47;;;;;;;;;;4936503;29;20058;-82
2021/01/27 16:51:54;;;;;;;10.77;5.57;;;;;;;;;;4941244;29;20047;-82
2021/01/27 16:54:20;;;;;;;9.32;4.78;;;;;;;;;;4926116;29;20106;-83
2021/01/27 16:56:47;;;;;;;8.80;4.93;;;;;;;;;;4926987;29;20495;-81
2021/01/27 16:59:13;;;;;;;8.15;5.10;;;;;;;;;;4937779;29;20067;-82
2021/01/27 17:01:39;;;;;;;8.57;6.03;;;;;;;;;;4934163;29;20047;-82
2021/01/27 17:04:06;;;;;;;4.32;2.55;;;;;;;;;;4938120;29;20072;-82
2021/01/27 17:06:42;;;;;;;7.07;3.25;;;;;;;;;;4938525;29;20453;-85
2021/01/27 17:09:08;;;;;;;8.70;5.07;;;;;;;;;;4932285;29;20063;-83
2021/01/27 17:11:34;;;;;;;13.80;7.90;;;;;;;;;;4920304;29;20131;-83
2021/01/27 17:14:00;;;;;;;8.68;4.90;;;;;;;;;;4938570;29;20043;-83
2021/01/27 17:16:27;;;;;;;9.43;4.25;;;;;;;;;;4938831;29;20068;-82
2021/01/27 17:18:54;;;;;;;8.18;5.07;;;;;;;;;;4921456;29;20054;-83
2021/01/27 17:21:21;;;;;;;10.15;5.57;;;;;;;;;;4939075;29;20051;-83